Time;durP1;ratioP1;P1;durP2;ratioP2;P2;SDS_P1;SDS_P2;PMS_P1;PMS_P2;Temp;Humidity;BMP_temperature;BMP_pressure;BME280_temperature;BME280_humidity;BME280_pressure;Samples;Min_cycle;Max_cycle;Signal;HPM_P1;HPM_P2
2021/12/16 00:02:57;;;;;;;30.33;14.98;;;;;;;-0.85;74.65;96371.78;5025640;28;20045;-81
2021/12/16 00:08:19;;;;;;;31.10;14.00;;;;;;;-0.76;74.34;96381.81;5025938;28;20061;-80
2021/12/16 00:10:53;;;;;;;29.52;14.15;;;;;;;-0.92;74.89;96376.50;5012297;28;20032;-79
2021/12/16 00:34:54;;;;;;;25.55;12.68;;;;;;;-0.56;73.19;96382.47;5018658;28;20065;-80
2021/12/16 00:37:20;;;;;;;20.05;11.27;;;;;;;-0.61;73.08;96384.53;5011453;28;20061;-79
2021/12/16 00:39:46;;;;;;;25.17;11.32;;;;;;;-0.47;72.86;96387.25;5028596;28;20045;-80
2021/12/16 00:42:27;;;;;;;23.42;11.80;;;;;;;-0.43;72.78;96394.06;5028485;28;20481;-79
2021/12/16 00:47:34;;;;;;;22.10;11.25;;;;;;;-0.41;72.55;96386.06;5029444;28;20029;-80
2021/12/16 00:50:21;;;;;;;20.40;10.35;;;;;;;-0.35;72.18;96384.84;5029294;28;20095;-81
2021/12/16 00:57:56;;;;;;;24.77;11.38;;;;;;;-0.18;71.57;96386.56;5029413;28;20411;-79
2021/12/16 01:00:25;;;;;;;20.58;10.50;;;;;;;-0.27;71.60;96388.78;5029133;28;20484;-79
2021/12/16 01:08:18;;;;;;;17.92;10.18;;;;;;;-0.38;72.44;96388.53;5032955;28;20593;-78
2021/12/16 01:36:07;;;;;;;21.02;10.20;;;;;;;-0.54;73.27;96368.28;5014187;28;20419;-81
2021/12/16 01:42:11;;;;;;;24.98;11.77;;;;;;;-0.50;72.90;96371.63;5029357;28;20431;-81
2021/12/16 01:47:37;;;;;;;21.48;11.63;;;;;;;-0.70;73.81;96375.34;5008831;28;20133;-80
2021/12/16 01:50:08;;;;;;;20.98;12.18;;;;;;;-0.87;74.53;96369.19;5009322;28;20086;-82
2021/12/16 01:55:30;;;;;;;21.15;10.73;;;;;;;-0.67;73.65;96356.72;5028697;28;20049;-81
2021/12/16 01:58:00;;;;;;;23.65;11.27;;;;;;;-0.71;74.09;96356.03;5029102;28;20034;-80
2021/12/16 02:01:00;;;;;;;19.98;10.27;;;;;;;-0.63;73.35;96353.00;5027037;28;20037;-79
2021/12/16 02:03:40;;;;;;;22.75;11.48;;;;;;;-0.83;74.06;96354.06;5028804;28;20483;-81
2021/12/16 02:06:21;;;;;;;23.25;11.23;;;;;;;-0.56;73.63;96350.84;5012035;28;20067;-81
2021/12/16 02:08:47;;;;;;;23.35;12.63;;;;;;;-0.69;74.42;96353.31;5026983;28;20049;-81
2021/12/16 02:11:23;;;;;;;21.50;10.35;;;;;;;-0.68;74.26;96344.50;5009793;28;20597;-81
2021/12/16 02:27:34;;;;;;;18.50;10.25;;;;;;;-0.34;74.08;96344.41;5028317;28;20130;-81
2021/12/16 02:37:50;;;;;;;20.38;11.80;;;;;;;-0.27;74.53;96346.59;5027725;28;20084;-80
2021/12/16 02:40:16;;;;;;;19.95;10.65;;;;;;;-0.05;74.31;96355.06;5027347;28;20091;-81
2021/12/16 02:43:02;;;;;;;18.20;10.23;;;;;;;-0.04;73.73;96351.47;5026808;28;20499;-79
2021/12/16 02:48:29;;;;;;;20.50;11.75;;;;;;;-0.26;75.51;96352.72;5027615;28;20119;-79
2021/12/16 02:50:56;;;;;;;22.20;10.73;;;;;;;-0.05;74.84;96358.53;5012326;28;20037;-80
2021/12/16 02:53:21;;;;;;;22.75;10.80;;;;;;;-0.03;74.78;96353.16;5009132;28;20288;-80
2021/12/16 02:55:47;;;;;;;21.05;10.80;;;;;;;0.05;74.46;96353.59;5027240;28;20036;-79
2021/12/16 02:58:14;;;;;;;25.33;12.45;;;;;;;0.07;74.66;96354.34;5026632;28;20036;-81
2021/12/16 03:00:44;;;;;;;20.48;10.57;;;;;;;0.16;74.14;96358.22;5027294;28;20030;-78
2021/12/16 03:03:10;;;;;;;21.65;11.20;;;;;;;0.07;73.64;96358.78;5027473;28;20735;-80
2021/12/16 03:05:35;;;;;;;21.85;10.45;;;;;;;0.11;74.38;96358.50;5009177;28;20049;-79
2021/12/16 03:08:01;;;;;;;19.75;10.15;;;;;;;0.09;74.58;96349.84;5026852;28;20531;-79
2021/12/16 03:20:41;;;;;;;20.50;10.95;;;;;;;0.14;74.70;96354.84;5026906;28;20025;-79
2021/12/16 03:23:26;;;;;;;22.63;11.15;;;;;;;0.14;74.72;96354.00;5026069;28;20033;-81
2021/12/16 03:29:08;;;;;;;25.40;11.43;;;;;;;0.11;74.38;96355.88;5027008;28;20033;-81
2021/12/16 03:34:40;;;;;;;23.35;10.73;;;;;;;0.20;73.98;96354.50;4997838;28;20092;-79
2021/12/16 03:40:06;;;;;;;22.33;10.80;;;;;;;0.27;74.60;96355.00;5026967;28;20104;-80
2021/12/16 03:42:37;;;;;;;20.75;11.05;;;;;;;0.35;74.58;96352.75;5010603;28;20033;-79
2021/12/16 03:46:25;;;;;;;21.98;11.25;;;;;;;0.32;73.90;96352.91;5025597;28;20079;-79
2021/12/16 03:47:56;;;;;;;16.95;9.57;;;;;;;0.38;73.80;96362.25;5026238;28;20039;-79
2021/12/16 03:50:22;;;;;;;23.42;11.15;;;;;;;0.46;73.29;96362.66;5027033;28;20055;-79
2021/12/16 03:52:51;;;;;;;24.73;13.45;;;;;;;0.23;74.57;96367.50;5007918;28;20025;-80
2021/12/16 03:55:17;;;;;;;20.42;10.68;;;;;;;0.25;74.70;96370.06;5026445;28;20029;-79
2021/12/16 03:57:42;;;;;;;22.63;11.88;;;;;;;0.39;74.50;96368.41;5025971;28;20469;-79
2021/12/16 04:00:20;;;;;;;22.30;11.38;;;;;;;0.26;74.09;96370.91;5009005;28;20049;-78
2021/12/16 04:02:46;;;;;;;25.98;12.30;;;;;;;0.06;75.46;96367.63;5025933;28;20027;-79
2021/12/16 04:05:12;;;;;;;22.38;11.73;;;;;;;0.28;75.51;96364.59;5026006;28;20044;-78
2021/12/16 04:07:37;;;;;;;22.50;12.32;;;;;;;0.21;75.07;96369.38;5026100;28;20050;-81
2021/12/16 04:10:05;;;;;;;21.38;10.57;;;;;;;0.34;75.08;96361.59;5025907;28;20156;-78
2021/12/16 04:12:30;;;;;;;22.77;11.52;;;;;;;0.27;74.79;96355.00;5008200;28;20513;-78
2021/12/16 04:14:58;;;;;;;25.42;12.43;;;;;;;-0.02;76.76;96360.16;5025547;28;20033;-80
2021/12/16 04:17:26;;;;;;;24.85;11.70;;;;;;;-0.10;76.84;96352.69;5008221;28;20152;-80
2021/12/16 04:19:51;;;;;;;24.30;12.23;;;;;;;-0.18;76.50;96349.66;5008208;28;20040;-79
2021/12/16 04:22:27;;;;;;;23.88;11.60;;;;;;;-0.06;76.37;96353.34;5025282;28;20033;-81
2021/12/16 04:24:53;;;;;;;21.15;11.07;;;;;;;0.13;76.32;96349.66;5009162;28;20036;-80
2021/12/16 04:27:18;;;;;;;21.48;11.55;;;;;;;0.27;75.35;96336.50;5025766;28;20034;-80
2021/12/16 04:29:44;;;;;;;21.13;11.18;;;;;;;0.19;75.13;96342.25;5026110;28;20091;-81
2021/12/16 04:32:10;;;;;;;21.65;11.23;;;;;;;0.18;75.26;96340.53;5025915;28;20121;-79
2021/12/16 04:34:35;;;;;;;21.80;10.63;;;;;;;0.17;75.79;96337.97;5025937;28;20026;-80
2021/12/16 04:37:00;;;;;;;22.20;12.13;;;;;;;0.28;74.60;96338.19;5025269;28;20041;-80
2021/12/16 04:39:29;;;;;;;23.05;12.95;;;;;;;0.21;75.33;96340.34;5026560;28;20026;-80
2021/12/16 04:41:55;;;;;;;19.13;11.27;;;;;;;0.32;75.01;96341.53;5027305;28;20495;-80
2021/12/16 04:44:21;;;;;;;20.20;10.45;;;;;;;0.32;74.54;96344.97;5008866;28;20029;-81
2021/12/16 04:46:46;;;;;;;20.73;10.50;;;;;;;0.38;74.73;96341.16;4991167;28;20040;-80
2021/12/16 04:49:12;;;;;;;18.67;10.40;;;;;;;0.45;73.97;96341.63;5024643;28;20040;-80
2021/12/16 04:51:40;;;;;;;18.80;10.00;;;;;;;0.49;73.84;96337.88;5025820;28;20033;-80
2021/12/16 04:54:07;;;;;;;21.10;10.35;;;;;;;0.34;74.42;96337.84;5025341;28;20039;-79
2021/12/16 04:56:33;;;;;;;18.35;10.60;;;;;;;0.39;74.34;96344.66;5007818;28;20029;-81
2021/12/16 04:58:59;;;;;;;19.35;10.77;;;;;;;0.47;74.23;96360.84;5029197;28;20026;-81
2021/12/16 05:01:24;;;;;;;20.23;9.73;;;;;;;0.48;73.69;96341.44;5029251;28;20076;-80
2021/12/16 05:03:51;;;;;;;20.30;10.10;;;;;;;0.60;73.56;96340.72;5012397;28;20037;-82
2021/12/16 05:06:17;;;;;;;22.10;10.40;;;;;;;0.57;73.34;96330.34;5028428;28;20029;-83
2021/12/16 05:08:43;;;;;;;17.52;9.10;;;;;;;0.63;72.46;96333.56;5011026;28;20045;-79
2021/12/16 05:11:12;;;;;;;17.80;9.93;;;;;;;0.58;73.06;96337.31;5010816;28;20033;-81
2021/12/16 05:13:37;;;;;;;18.50;9.63;;;;;;;0.59;73.50;96325.81;5010886;28;20040;-82
2021/12/16 05:16:04;;;;;;;18.00;9.52;;;;;;;0.64;73.16;96332.59;5011172;28;20034;-81
2021/12/16 05:18:33;;;;;;;14.70;8.27;;;;;;;0.63;72.47;96331.75;5011725;28;20025;-80
2021/12/16 05:21:00;;;;;;;14.52;9.20;;;;;;;0.63;72.31;96328.28;5028014;28;20087;-80
2021/12/16 05:28:40;;;;;;;16.42;8.82;;;;;;;0.68;71.96;96336.75;5028266;28;20033;-79
2021/12/16 05:31:06;;;;;;;18.10;9.57;;;;;;;0.73;72.39;96339.97;5028939;28;20095;-79
2021/12/16 05:33:31;;;;;;;14.80;8.98;;;;;;;0.60;72.08;96332.78;5027673;28;20037;-80
2021/12/16 05:35:57;;;;;;;18.88;9.77;;;;;;;0.57;72.66;96324.19;5029042;28;20080;-78
2021/12/16 05:38:23;;;;;;;14.35;8.60;;;;;;;0.56;73.26;96326.00;5023936;28;20041;-79
2021/12/16 05:40:48;;;;;;;15.80;8.15;;;;;;;0.58;72.63;96341.75;5012992;28;20036;-81
2021/12/16 05:43:16;;;;;;;14.32;8.57;;;;;;;0.63;72.45;96339.66;5027489;28;20044;-78
2021/12/16 05:45:42;;;;;;;16.13;8.57;;;;;;;0.70;72.17;96337.50;4994444;28;20045;-80
2021/12/16 05:48:09;;;;;;;16.35;9.65;;;;;;;0.75;72.31;96338.09;5010218;28;20294;-79
2021/12/16 05:50:37;;;;;;;14.98;8.23;;;;;;;0.76;72.18;96334.50;4977925;28;20033;-81
2021/12/16 05:53:04;;;;;;;14.57;7.88;;;;;;;0.72;72.05;96333.00;4991052;28;20642;-80
2021/12/16 05:55:29;;;;;;;13.50;8.52;;;;;;;0.66;72.92;96336.84;4995555;28;20037;-75
2021/12/16 05:57:56;;;;;;;13.77;8.60;;;;;;;0.67;72.23;96340.34;5025430;28;20125;-76
2021/12/16 06:00:25;;;;;;;13.48;7.95;;;;;;;0.72;72.39;96343.56;5009609;28;20048;-77
2021/12/16 06:02:51;;;;;;;13.02;7.93;;;;;;;0.69;71.90;96341.09;5008957;28;20500;-79
2021/12/16 06:05:17;;;;;;;12.85;6.95;;;;;;;0.76;71.24;96338.94;5028068;28;20030;-78
2021/12/16 06:07:42;;;;;;;13.90;7.80;;;;;;;0.81;71.39;96337.69;4990893;28;20038;-81
2021/12/16 06:10:18;;;;;;;13.93;7.78;;;;;;;0.74;71.74;96345.16;5026674;28;20025;-78
2021/12/16 06:12:43;;;;;;;15.05;9.15;;;;;;;0.63;72.20;96349.41;5012302;28;20025;-78
2021/12/16 06:28:23;;;;;;;16.30;8.77;;;;;;;0.63;72.41;96344.94;4990712;28;20042;-79
2021/12/16 06:30:48;;;;;;;13.30;7.68;;;;;;;0.73;71.97;96342.59;4993426;28;20416;-79
2021/12/16 06:33:17;;;;;;;14.20;8.88;;;;;;;0.80;71.41;96341.31;5009793;28;20152;-79
2021/12/16 06:35:42;;;;;;;13.48;7.75;;;;;;;0.82;71.20;96342.03;4993868;28;20036;-78
2021/12/16 06:38:07;;;;;;;13.65;8.02;;;;;;;0.94;70.84;96337.81;5027568;28;20030;-76
2021/12/16 06:40:33;;;;;;;12.27;7.43;;;;;;;0.86;71.09;96334.78;5027971;28;20036;-77
2021/12/16 06:43:00;;;;;;;13.55;7.55;;;;;;;0.92;70.48;96338.84;5026980;28;20743;-79
2021/12/16 06:45:30;;;;;;;12.57;7.25;;;;;;;0.93;71.08;96333.47;5009321;28;20486;-79
2021/12/16 06:48:10;;;;;;;12.50;6.75;;;;;;;0.85;71.53;96331.28;5010117;28;20037;-77
2021/12/16 06:53:03;;;;;;;12.57;7.35;;;;;;;0.91;71.51;96339.78;5009621;28;20532;-80
2021/12/16 06:56:06;;;;;;;12.80;7.28;;;;;;;0.95;70.62;96333.38;4993413;28;20044;-78
2021/12/16 06:58:32;;;;;;;15.35;8.02;;;;;;;0.98;70.80;96341.09;5024053;28;20038;-78
2021/12/16 07:01:14;;;;;;;12.18;6.72;;;;;;;0.86;70.47;96343.56;5026650;28;20030;-77
2021/12/16 07:03:47;;;;;;;10.45;6.80;;;;;;;0.82;71.49;96347.31;5026981;28;20029;-77
2021/12/16 07:06:22;;;;;;;11.65;6.85;;;;;;;0.91;71.33;96337.13;5010489;28;20026;-77
2021/12/16 07:08:48;;;;;;;10.65;6.40;;;;;;;0.93;70.62;96348.47;5026126;28;20041;-78
2021/12/16 07:11:14;;;;;;;11.45;7.00;;;;;;;0.93;70.59;96345.81;5009467;28;20021;-77
2021/12/16 07:13:41;;;;;;;14.00;7.13;;;;;;;1.01;71.18;96346.19;4992556;28;20029;-77
2021/12/16 07:16:09;;;;;;;10.52;6.50;;;;;;;1.03;70.64;96346.94;5026608;28;20040;-77
2021/12/16 07:18:34;;;;;;;12.45;7.13;;;;;;;0.96;71.15;96341.22;5008813;28;20041;-77
2021/12/16 07:21:01;;;;;;;9.93;6.80;;;;;;;1.04;70.30;96338.09;5008333;28;20443;-77
2021/12/16 07:23:26;;;;;;;11.68;6.55;;;;;;;0.97;71.45;96342.03;5009236;28;20500;-77
2021/12/16 07:25:52;;;;;;;12.85;6.68;;;;;;;0.96;71.28;96341.22;5026340;28;20025;-76
2021/12/16 07:28:18;;;;;;;13.32;7.10;;;;;;;0.93;71.93;96346.69;5027057;28;20068;-78
2021/12/16 07:30:44;;;;;;;8.80;6.35;;;;;;;0.86;71.50;96345.34;5026122;28;20075;-79
2021/12/16 07:33:09;;;;;;;10.82;7.22;;;;;;;1.00;70.98;96344.47;4992686;28;20112;-77
2021/12/16 07:35:35;;;;;;;12.45;7.30;;;;;;;1.04;70.57;96353.94;5026917;28;20037;-78
2021/12/16 07:38:01;;;;;;;12.25;7.03;;;;;;;1.15;70.06;96352.41;4992057;28;20108;-78
2021/12/16 07:40:26;;;;;;;11.20;6.40;;;;;;;1.20;69.99;96356.47;5008857;28;20025;-78
2021/12/16 07:45:24;;;;;;;11.60;7.28;;;;;;;1.32;69.74;96349.56;4994518;28;20033;-76
2021/12/16 07:47:49;;;;;;;12.30;7.03;;;;;;;1.29;69.34;96355.03;5008424;28;20434;-77
2021/12/16 07:50:15;;;;;;;12.43;6.78;;;;;;;1.35;69.71;96353.81;5026455;28;20087;-80
2021/12/16 07:52:40;;;;;;;10.85;6.25;;;;;;;1.29;69.12;96347.09;5025977;28;20439;-78
2021/12/16 07:55:07;;;;;;;12.68;6.78;;;;;;;1.18;69.75;96355.72;5008320;28;20493;-77
2021/12/16 07:57:32;;;;;;;8.75;6.30;;;;;;;1.24;69.46;96349.22;4992302;28;20040;-78
2021/12/16 07:59:57;;;;;;;10.45;6.78;;;;;;;1.28;70.07;96350.69;5026231;28;20025;-78
2021/12/16 08:02:23;;;;;;;13.25;7.70;;;;;;;1.41;69.04;96355.22;5026314;28;20033;-79
2021/12/16 08:04:49;;;;;;;11.88;7.38;;;;;;;1.43;69.23;96355.97;5026890;28;20056;-77
2021/12/16 08:07:17;;;;;;;12.07;7.22;;;;;;;1.53;68.83;96359.72;5009049;28;20033;-78
2021/12/16 08:09:43;;;;;;;13.55;7.88;;;;;;;1.53;69.20;96359.72;5026364;28;20103;-77
2021/12/16 08:12:10;;;;;;;14.27;7.45;;;;;;;1.44;69.67;96363.81;5009212;28;20034;-77
2021/12/16 08:14:36;;;;;;;10.50;6.35;;;;;;;1.45;69.53;96356.72;5025804;28;20518;-77
2021/12/16 08:17:01;;;;;;;11.70;6.95;;;;;;;1.48;68.99;96356.53;5026159;28;20025;-77
2021/12/16 08:19:27;;;;;;;9.30;6.47;;;;;;;1.56;69.01;96371.91;5027132;28;20039;-77
2021/12/16 08:21:52;;;;;;;12.25;7.57;;;;;;;1.45;68.42;96352.28;5029715;28;20026;-80
2021/12/16 08:24:18;;;;;;;11.45;7.15;;;;;;;1.55;68.83;96355.19;4995916;28;20037;-78
2021/12/16 08:26:48;;;;;;;11.35;7.75;;;;;;;1.51;68.75;96364.28;5010481;28;20021;-78
2021/12/16 08:29:13;;;;;;;11.82;7.38;;;;;;;1.48;69.13;96353.88;5027282;28;20026;-78
2021/12/16 08:31:39;;;;;;;12.13;7.18;;;;;;;1.58;68.79;96352.34;5027258;28;20024;-79
2021/12/16 08:34:05;;;;;;;14.60;7.65;;;;;;;1.59;68.55;96353.19;4996229;28;20029;-81
2021/12/16 08:36:31;;;;;;;12.27;7.50;;;;;;;1.50;69.16;96354.63;5030028;28;20108;-79
2021/12/16 08:38:56;;;;;;;12.80;7.43;;;;;;;1.62;68.83;96352.13;5030147;28;20156;-80
2021/12/16 08:41:24;;;;;;;17.00;8.25;;;;;;;1.62;69.10;96346.84;5029830;28;20021;-78
2021/12/16 08:43:49;;;;;;;10.57;7.20;;;;;;;1.57;69.29;96348.00;5029855;28;20522;-77
2021/12/16 08:46:17;;;;;;;11.82;6.82;;;;;;;1.63;68.06;96348.56;4995913;28;20025;-79
2021/12/16 08:48:43;;;;;;;11.00;6.93;;;;;;;1.55;69.14;96355.19;4979114;28;20436;-80
2021/12/16 08:51:09;;;;;;;11.82;6.75;;;;;;;1.61;68.97;96356.59;5012160;28;20033;-77
2021/12/16 08:53:35;;;;;;;10.18;6.55;;;;;;;1.57;68.83;96345.38;5011636;28;20026;-78
2021/12/16 08:56:01;;;;;;;11.48;6.60;;;;;;;1.60;68.51;96349.59;5029712;28;20049;-77
2021/12/16 08:58:26;;;;;;;11.85;6.78;;;;;;;1.55;68.94;96343.75;5011838;28;20037;-77
2021/12/16 09:00:58;;;;;;;11.70;6.75;;;;;;;1.56;68.76;96346.31;5029327;28;20025;-78
2021/12/16 09:03:23;;;;;;;9.13;6.15;;;;;;;1.62;68.99;96349.50;5012125;28;20108;-78
2021/12/16 09:05:49;;;;;;;12.85;7.28;;;;;;;1.66;69.17;96335.16;5011563;28;20137;-78
2021/12/16 09:08:14;;;;;;;12.18;7.80;;;;;;;1.62;69.42;96336.28;4995611;28;20072;-80
2021/12/16 09:10:40;;;;;;;13.52;8.05;;;;;;;1.60;69.55;96328.44;5010892;28;20026;-78
2021/12/16 09:13:12;;;;;;;10.70;6.80;;;;;;;1.58;69.85;96336.47;5011758;28;20034;-78
2021/12/16 09:15:52;;;;;;;9.43;6.20;;;;;;;1.73;68.67;96331.13;4995941;28;20029;-78
2021/12/16 09:18:23;;;;;;;11.05;6.88;;;;;;;1.82;68.92;96327.06;4995703;28;20113;-79
2021/12/16 09:20:49;;;;;;;9.55;6.32;;;;;;;1.79;68.49;96332.56;5011716;28;20443;-78
2021/12/16 09:23:15;;;;;;;10.15;6.88;;;;;;;1.81;68.90;96333.28;5028683;28;20033;-79
2021/12/16 09:25:41;;;;;;;13.65;7.47;;;;;;;1.85;68.74;96327.69;4995023;28;20033;-78
2021/12/16 09:28:07;;;;;;;10.05;5.85;;;;;;;1.85;68.09;96332.16;5028632;28;20114;-78
2021/12/16 09:30:34;;;;;;;9.55;5.82;;;;;;;1.83;68.28;96328.75;5010832;28;20053;-76
2021/12/16 09:33:02;;;;;;;7.88;5.43;;;;;;;1.90;68.60;96323.91;4995425;28;20025;-79
2021/12/16 09:35:28;;;;;;;7.60;5.40;;;;;;;1.95;68.15;96312.06;5010445;28;20029;-78
2021/12/16 09:37:55;;;;;;;8.40;5.45;;;;;;;1.93;68.35;96313.97;5011269;28;20030;-78
2021/12/16 09:40:23;;;;;;;7.57;5.72;;;;;;;1.94;67.29;96314.81;5010767;28;20025;-78
2021/12/16 09:42:49;;;;;;;6.72;5.20;;;;;;;1.99;67.68;96307.41;5010759;28;20599;-78
2021/12/16 09:45:15;;;;;;;7.70;5.18;;;;;;;2.00;67.90;96309.09;5010473;28;20032;-79
2021/12/16 09:47:43;;;;;;;7.50;5.35;;;;;;;2.06;67.31;96313.16;5010607;28;20025;-79
2021/12/16 09:50:09;;;;;;;7.80;5.05;;;;;;;2.02;67.85;96304.56;5028899;28;20033;-81
2021/12/16 09:52:34;;;;;;;7.28;5.80;;;;;;;1.97;67.88;96299.59;5028309;28;20044;-79
2021/12/16 09:55:00;;;;;;;8.75;5.13;;;;;;;2.04;67.61;96301.81;4994865;28;20483;-78
2021/12/16 09:57:25;;;;;;;8.50;5.22;;;;;;;2.12;67.62;96301.28;5028141;28;20025;-80
2021/12/16 09:59:51;;;;;;;6.63;4.97;;;;;;;2.08;67.21;96301.50;5010741;28;20037;-80
2021/12/16 10:02:18;;;;;;;7.13;5.10;;;;;;;2.12;67.38;96307.44;5027943;28;20029;-80
2021/12/16 10:04:43;;;;;;;5.65;4.45;;;;;;;2.01;67.17;96294.09;4994408;28;20078;-80
2021/12/16 10:07:20;;;;;;;6.65;5.00;;;;;;;1.97;67.88;96304.00;5010142;28;20025;-78
2021/12/16 10:09:47;;;;;;;6.63;4.72;;;;;;;2.00;67.75;96303.81;5010179;28;20030;-80
2021/12/16 10:12:16;;;;;;;6.57;4.60;;;;;;;2.04;67.44;96300.03;4994497;28;20113;-78
2021/12/16 10:15:04;;;;;;;8.30;5.32;;;;;;;2.09;67.46;96292.63;5010185;28;20033;-79
2021/12/16 10:17:32;;;;;;;8.82;5.32;;;;;;;2.08;67.49;96290.91;5028836;28;20108;-80
2021/12/16 10:20:12;;;;;;;7.20;5.55;;;;;;;1.93;68.28;96287.53;5027355;28;20083;-78
2021/12/16 10:22:40;;;;;;;9.48;5.30;;;;;;;2.02;68.07;96280.75;5027566;28;20040;-79
2021/12/16 10:25:42;;;;;;;7.95;5.05;;;;;;;2.07;67.59;96283.94;5010683;28;20064;-78
2021/12/16 10:28:07;;;;;;;8.50;5.13;;;;;;;2.09;67.60;96270.59;4952572;28;20132;-77
2021/12/16 10:30:37;;;;;;;9.05;5.93;;;;;;;2.02;67.41;96278.09;5027891;28;20108;-79
2021/12/16 10:33:32;;;;;;;8.95;5.57;;;;;;;2.01;68.07;96272.91;5009354;28;20033;-77
2021/12/16 10:36:24;;;;;;;8.13;5.53;;;;;;;2.07;67.92;96270.72;5011416;28;20033;-78
2021/12/16 10:38:55;;;;;;;7.45;5.15;;;;;;;2.09;68.11;96266.16;5027852;28;20576;-77
2021/12/16 10:41:57;;;;;;;7.60;5.25;;;;;;;2.06;67.32;96252.28;5027019;28;20539;-77
2021/12/16 10:44:23;;;;;;;9.45;4.93;;;;;;;2.10;67.81;96257.28;5013986;28;20508;-78
2021/12/16 10:47:00;;;;;;;12.48;5.75;;;;;;;2.14;67.13;96263.22;5027632;28;20021;-80
2021/12/16 10:49:33;;;;;;;9.52;5.80;;;;;;;2.19;67.16;96253.13;5027020;28;20026;-77
2021/12/16 10:52:08;;;;;;;10.27;5.90;;;;;;;2.14;67.45;96247.31;5010964;28;20033;-78
2021/12/16 10:54:36;;;;;;;8.07;5.30;;;;;;;2.12;67.44;96248.38;4992601;28;20065;-77
2021/12/16 10:57:04;;;;;;;8.80;5.55;;;;;;;2.05;68.41;96240.84;5009608;28;20036;-78
2021/12/16 10:59:53;;;;;;;10.05;5.78;;;;;;;2.12;67.74;96251.88;5027433;28;20036;-79
2021/12/16 11:02:20;;;;;;;8.30;6.03;;;;;;;2.13;67.44;96239.50;5016711;28;20040;-78
2021/12/16 11:05:19;;;;;;;8.38;6.07;;;;;;;2.09;67.84;96237.06;5027543;28;20116;-78
2021/12/16 11:07:46;;;;;;;9.00;5.60;;;;;;;2.11;67.52;96234.31;5008639;28;20041;-79
2021/12/16 11:10:25;;;;;;;8.50;5.50;;;;;;;2.12;67.98;96241.28;4992755;28;20029;-79
2021/12/16 11:12:54;;;;;;;10.52;6.38;;;;;;;2.10;67.90;96237.88;5027071;28;20029;-78
2021/12/16 11:15:22;;;;;;;7.70;5.18;;;;;;;2.13;68.20;96239.50;5008921;28;20033;-77
2021/12/16 11:17:49;;;;;;;9.40;5.78;;;;;;;2.12;68.25;96233.34;5027483;28;20079;-77
2021/12/16 11:20:28;;;;;;;9.80;5.95;;;;;;;2.09;68.10;96231.75;5008653;28;20037;-76
2021/12/16 11:23:22;;;;;;;7.22;5.13;;;;;;;2.09;68.25;96220.31;5009700;28;20022;-77
2021/12/16 11:25:52;;;;;;;9.00;5.88;;;;;;;2.08;67.99;96234.50;5024409;28;20040;-79
2021/12/16 11:28:19;;;;;;;9.93;5.85;;;;;;;2.04;68.22;96235.66;5008262;28;20113;-78
2021/12/16 11:30:51;;;;;;;8.63;5.70;;;;;;;2.05;68.42;96230.25;5027214;28;20029;-78
2021/12/16 11:33:30;;;;;;;11.38;6.38;;;;;;;2.07;68.55;96228.38;5008118;28;20430;-78
2021/12/16 11:36:32;;;;;;;9.43;5.78;;;;;;;2.05;67.94;96222.31;5010688;28;20034;-76
2021/12/16 11:39:03;;;;;;;9.60;6.68;;;;;;;1.96;68.30;96229.09;4971771;28;20438;-77
2021/12/16 11:41:29;;;;;;;9.10;6.05;;;;;;;1.96;68.71;96229.09;5026341;28;20037;-76
2021/12/16 11:44:12;;;;;;;7.85;5.68;;;;;;;1.90;68.33;96226.88;5026911;28;20100;-78
2021/12/16 11:46:42;;;;;;;7.82;5.43;;;;;;;1.90;69.03;96218.06;5026151;28;20133;-79
2021/12/16 11:49:21;;;;;;;11.43;6.68;;;;;;;1.89;67.98;96216.38;5026154;28;20428;-78
2021/12/16 11:51:50;;;;;;;8.82;6.00;;;;;;;1.89;69.20;96221.66;5026518;28;20492;-77
2021/12/16 11:54:17;;;;;;;8.75;6.05;;;;;;;1.92;69.38;96230.25;5007779;28;20067;-77
2021/12/16 11:56:45;;;;;;;10.40;6.55;;;;;;;1.93;69.28;96220.53;5009106;28;20034;-79
2021/12/16 11:59:10;;;;;;;8.85;6.38;;;;;;;1.97;68.61;96216.69;5025766;28;20017;-78
2021/12/16 12:01:38;;;;;;;11.98;7.40;;;;;;;2.03;69.33;96213.63;5008899;28;20079;-82
2021/12/16 12:04:05;;;;;;;12.27;7.53;;;;;;;2.06;68.42;96216.06;5008127;28;20029;-79
2021/12/16 12:06:31;;;;;;;12.85;8.00;;;;;;;2.05;68.34;96219.69;5031205;28;20053;-78
2021/12/16 12:08:57;;;;;;;10.68;6.68;;;;;;;2.11;68.75;96210.50;5032553;28;20522;-79
2021/12/16 12:11:28;;;;;;;10.70;6.57;;;;;;;2.15;68.29;96203.16;5032451;28;20025;-79
2021/12/16 12:14:02;;;;;;;11.05;6.38;;;;;;;2.15;68.58;96211.97;4999598;28;20037;-78
2021/12/16 12:16:39;;;;;;;9.25;6.43;;;;;;;2.20;67.95;96209.00;5015537;28;20072;-77
2021/12/16 12:19:13;;;;;;;10.02;6.40;;;;;;;2.21;68.47;96214.19;5015313;28;20029;-78
2021/12/16 12:21:55;;;;;;;10.27;6.25;;;;;;;2.20;67.94;96206.34;5032285;28;20424;-77
2021/12/16 12:24:35;;;;;;;10.25;6.78;;;;;;;2.16;68.05;96218.94;5032205;28;20026;-79
2021/12/16 12:27:03;;;;;;;14.18;7.05;;;;;;;2.14;68.12;96210.28;5015414;28;20075;-76
2021/12/16 12:29:36;;;;;;;11.05;6.72;;;;;;;2.17;68.44;96219.78;5014465;28;20029;-78
2021/12/16 12:32:34;;;;;;;9.27;6.40;;;;;;;2.10;68.08;96219.34;5032699;28;20086;-77
2021/12/16 12:35:00;;;;;;;11.60;6.72;;;;;;;2.07;68.42;96220.44;5011320;28;20037;-77
2021/12/16 12:37:26;;;;;;;11.65;6.53;;;;;;;2.00;68.28;96213.00;5032346;28;20029;-78
2021/12/16 12:39:58;;;;;;;9.57;6.10;;;;;;;2.02;68.55;96216.38;5015586;28;20022;-78
2021/12/16 12:42:23;;;;;;;9.43;6.38;;;;;;;2.00;68.14;96220.94;5032215;28;20048;-80
2021/12/16 12:44:49;;;;;;;10.68;7.05;;;;;;;1.99;68.48;96222.75;5015032;28;20063;-78
2021/12/16 12:47:21;;;;;;;9.95;6.75;;;;;;;1.98;69.26;96231.66;5033239;28;20057;-79
2021/12/16 12:49:46;;;;;;;10.70;6.93;;;;;;;1.99;68.92;96220.09;5015209;28;20040;-77
2021/12/16 12:52:23;;;;;;;14.25;8.27;;;;;;;2.02;69.02;96211.09;5032860;28;20021;-80
2021/12/16 12:55:11;;;;;;;11.68;7.25;;;;;;;2.06;68.39;96205.47;5014367;28;20029;-77
2021/12/16 12:57:37;;;;;;;11.57;7.00;;;;;;;2.12;68.53;96200.72;4999022;28;20029;-78
2021/12/16 13:00:05;;;;;;;15.18;7.13;;;;;;;2.06;68.42;96197.53;5014661;28;20087;-78
2021/12/16 13:02:40;;;;;;;11.55;7.00;;;;;;;2.05;68.52;96202.94;5032581;28;20025;-79
2021/12/16 13:05:12;;;;;;;9.98;6.20;;;;;;;2.03;67.83;96202.22;5014857;28;20041;-79
2021/12/16 13:07:46;;;;;;;11.38;7.05;;;;;;;2.14;68.11;96210.28;5013978;28;20045;-78
2021/12/16 13:10:17;;;;;;;9.82;6.35;;;;;;;2.11;67.68;96205.19;4999888;28;20415;-80
2021/12/16 13:13:05;;;;;;;13.73;7.05;;;;;;;2.04;67.78;96204.75;5031615;28;20484;-80
2021/12/16 13:15:49;;;;;;;11.35;6.88;;;;;;;2.01;68.12;96210.25;5031993;28;20486;-78
2021/12/16 13:26:37;;;;;;;11.90;7.22;;;;;;;2.03;68.32;96203.03;5011442;28;20133;-79
2021/12/16 13:29:36;;;;;;;13.23;7.72;;;;;;;2.06;68.31;96202.84;5011980;28;20025;-77
2021/12/16 13:32:23;;;;;;;15.32;8.88;;;;;;;2.14;68.22;96207.63;5029363;28;20549;-78
2021/12/16 13:35:11;;;;;;;12.73;7.88;;;;;;;2.11;67.99;96202.56;5011351;28;20034;-79
2021/12/16 13:37:40;;;;;;;12.85;7.57;;;;;;;2.15;67.53;96206.66;5013618;28;20085;-81
2021/12/16 13:40:08;;;;;;;13.13;7.95;;;;;;;2.12;68.07;96192.78;5011905;28;20030;-77
2021/12/16 13:42:54;;;;;;;15.05;8.48;;;;;;;2.09;68.17;96202.66;5028374;28;20034;-79
2021/12/16 13:45:26;;;;;;;17.08;8.30;;;;;;;2.12;68.13;96200.72;5029246;28;20404;-79
2021/12/16 14:01:59;;;;;;;18.25;9.98;;;;;;;1.95;68.19;96211.50;4999879;28;20040;-80
2021/12/16 14:10:16;;;;;;;16.60;10.30;;;;;;;2.06;68.24;96220.53;4996699;28;20049;-78
2021/12/16 14:16:15;;;;;;;18.92;10.70;;;;;;;2.09;68.11;96226.47;5028139;28;20141;-77
2021/12/16 14:39:00;;;;;;;22.45;12.40;;;;;;;2.14;67.07;96244.69;5019301;28;20026;-76
2021/12/16 14:47:14;;;;;;;22.27;12.20;;;;;;;2.24;66.44;96242.25;4983001;28;20029;-79
2021/12/16 14:49:44;;;;;;;21.50;12.00;;;;;;;2.03;67.18;96240.09;4998083;28;20412;-77
2021/12/16 14:52:18;;;;;;;21.60;11.27;;;;;;;2.05;67.63;96238.19;5026738;28;20099;-79
2021/12/16 14:54:56;;;;;;;22.70;10.90;;;;;;;2.12;67.34;96232.50;4995106;28;20104;-78
2021/12/16 14:57:31;;;;;;;17.83;9.80;;;;;;;2.10;67.17;96241.38;5012281;28;20028;-80
2021/12/16 14:59:56;;;;;;;21.17;11.38;;;;;;;2.08;67.08;96247.75;4996638;28;20046;-79
2021/12/16 15:02:27;;;;;;;24.63;12.43;;;;;;;2.05;67.18;96248.78;5011948;28;20021;-78
2021/12/16 15:04:52;;;;;;;19.48;11.80;;;;;;;2.03;67.13;96242.75;4996190;28;20033;-79